Time;durP1;ratioP1;P1;durP2;ratioP2;P2;SDS_P1;SDS_P2;PMS_P1;PMS_P2;Temp;Humidity;BMP_temperature;BMP_pressure;BME280_temperature;BME280_humidity;BME280_pressure;Samples;Min_cycle;Max_cycle;Signal;HPM_P1;HPM_P2
2023/12/22 00:01:00;;;;;;;19.10;15.38;;;;;;;;;;5046507;28;20092;-65
2023/12/22 00:03:26;;;;;;;17.30;13.73;;;20.50;80.50;;;;;;5022696;28;20411;-65
2023/12/22 00:05:51;;;;;;;15.32;11.65;;;20.50;81.70;;;;;;5030004;28;20041;-65
2023/12/22 00:08:17;;;;;;;15.52;11.50;;;20.40;81.50;;;;;;4999426;28;20479;-65
2023/12/22 00:10:43;;;;;;;15.75;10.55;;;20.40;81.30;;;;;;5013881;28;20103;-65
2023/12/22 00:13:09;;;;;;;14.93;9.13;;;20.40;81.30;;;;;;5021793;28;20487;-65
2023/12/22 00:15:35;;;;;;;13.95;8.90;;;;;;;;;;5022318;28;20411;-65
2023/12/22 00:18:01;;;;;;;14.07;8.95;;;;;;;;;;5028876;28;20050;-66
2023/12/22 00:20:27;;;;;;;12.48;8.07;;;20.00;81.20;;;;;;5012523;28;20056;-66
2023/12/22 00:22:53;;;;;;;11.98;7.57;;;20.20;81.40;;;;;;5028489;28;20049;-66
2023/12/22 00:25:19;;;;;;;13.23;7.35;;;;;;;;;;5045861;28;20121;-65
2023/12/22 00:27:45;;;;;;;10.88;6.28;;;20.10;81.40;;;;;;5022909;28;20495;-65
2023/12/22 00:30:11;;;;;;;10.45;6.03;;;20.00;81.40;;;;;;5013950;28;20059;-65
2023/12/22 00:32:37;;;;;;;9.20;5.45;;;;;;;;;;5030438;28;20050;-65
2023/12/22 00:35:04;;;;;;;10.80;5.72;;;19.90;81.60;;;;;;5014621;28;20050;-65
2023/12/22 00:37:30;;;;;;;10.20;5.05;;;19.80;81.70;;;;;;5044796;28;20122;-66
2023/12/22 00:39:56;;;;;;;9.38;4.93;;;19.70;81.80;;;;;;5045196;28;20085;-66
2023/12/22 00:42:22;;;;;;;8.88;4.70;;;19.60;82.00;;;;;;5019282;28;20049;-65
2023/12/22 00:44:48;;;;;;;9.88;4.82;;;;;;;;;;5015996;28;20099;-65
2023/12/22 00:47:13;;;;;;;9.10;4.57;;;19.40;82.10;;;;;;5060846;28;20137;-65
2023/12/22 00:49:40;;;;;;;9.15;4.40;;;;;;;;;;5040420;28;20121;-65
2023/12/22 00:52:05;;;;;;;9.68;4.30;;;19.40;82.30;;;;;;5012466;28;20057;-65
2023/12/22 00:54:31;;;;;;;8.18;3.92;;;19.50;82.40;;;;;;5028056;28;20049;-65
2023/12/22 00:56:57;;;;;;;9.73;3.75;;;19.50;82.40;;;;;;5045016;28;20491;-65
2023/12/22 00:59:24;;;;;;;9.30;3.80;;;19.50;80.10;;;;;;5013111;28;20050;-65
2023/12/22 01:01:49;;;;;;;8.23;3.70;;;19.60;82.20;;;;;;5059002;28;20037;-65
2023/12/22 01:04:15;;;;;;;8.05;3.58;;;19.70;82.20;;;;;;5015000;28;20458;-65
2023/12/22 01:06:41;;;;;;;7.78;3.88;;;19.80;82.10;;;;;;5025299;28;20053;-65
2023/12/22 01:09:07;;;;;;;9.85;3.97;;;19.70;81.80;;;;;;5013170;28;20053;-65
2023/12/22 01:11:33;;;;;;;8.27;3.10;;;19.80;81.80;;;;;;5055164;28;20057;-65
2023/12/22 01:13:58;;;;;;;9.30;3.50;;;19.70;79.80;;;;;;5032831;28;20176;-65
2023/12/22 01:16:24;;;;;;;10.20;3.47;;;;;;;;;;5056045;28;20065;-65
2023/12/22 01:18:50;;;;;;;8.57;3.17;;;19.80;81.50;;;;;;5013095;28;20068;-65
2023/12/22 01:21:17;;;;;;;9.65;3.35;;;19.90;80.80;;;;;;5011376;28;20041;-65
2023/12/22 01:23:43;;;;;;;8.63;3.33;;;19.80;81.50;;;;;;5027646;28;20050;-65
2023/12/22 01:26:08;;;;;;;11.45;3.67;;;19.80;81.50;;;;;;5013911;28;20038;-65
2023/12/22 01:28:34;;;;;;;8.50;2.88;;;19.90;81.60;;;;;;5013109;28;20053;-65
2023/12/22 01:31:01;;;;;;;8.73;3.20;;;19.70;80.90;;;;;;5028843;28;20054;-66
2023/12/22 01:33:26;;;;;;;8.13;3.10;;;19.70;81.60;;;;;;5055282;28;20049;-65
2023/12/22 01:35:52;;;;;;;7.50;2.92;;;19.80;81.60;;;;;;5017898;28;20128;-65
2023/12/22 01:38:18;;;;;;;9.13;3.05;;;;;;;;;;5047784;28;20491;-65
2023/12/22 01:40:44;;;;;;;7.28;3.00;;;19.80;81.60;;;;;;5053827;28;20534;-65
2023/12/22 01:43:10;;;;;;;7.28;2.90;;;19.60;81.40;;;;;;5040464;28;20073;-65
2023/12/22 01:45:36;;;;;;;6.90;2.97;;;;;;;;;;5014793;28;20695;-65
2023/12/22 01:48:02;;;;;;;9.73;3.20;;;19.70;81.40;;;;;;5030625;28;20084;-65
2023/12/22 01:50:28;;;;;;;8.38;3.25;;;19.60;81.40;;;;;;5032697;28;20054;-65
2023/12/22 01:52:54;;;;;;;10.02;3.30;;;;;;;;;;5034618;28;20138;-65
2023/12/22 01:55:20;;;;;;;10.38;3.03;;;;;;;;;;5040554;28;20046;-65
2023/12/22 01:57:46;;;;;;;9.27;3.05;;;19.50;81.40;;;;;;5017372;28;20053;-65
2023/12/22 02:00:12;;;;;;;8.95;3.00;;;19.50;78.20;;;;;;5051678;28;20045;-65
2023/12/22 02:02:38;;;;;;;9.18;2.95;;;19.50;81.40;;;;;;5035283;28;20480;-65
2023/12/22 02:05:04;;;;;;;8.82;3.30;;;19.50;81.40;;;;;;5067316;28;20085;-65
2023/12/22 02:07:30;;;;;;;9.63;2.92;;;19.40;81.40;;;;;;5024014;28;20048;-65
2023/12/22 02:09:56;;;;;;;9.98;3.30;;;19.40;81.40;;;;;;5006927;28;20543;-65
2023/12/22 02:12:22;;;;;;;8.80;3.28;;;;;;;;;;5048190;28;20125;-65
2023/12/22 02:14:48;;;;;;;9.52;3.35;;;19.30;81.30;;;;;;5051599;28;20042;-65
2023/12/22 02:17:22;;;;;;;9.30;3.30;;;19.10;78.60;;;;;;5032151;28;20563;-65
2023/12/22 02:19:48;;;;;;;11.23;3.85;;;;;;;;;;5050570;28;20060;-65
2023/12/22 02:22:13;;;;;;;9.30;3.67;;;19.40;80.80;;;;;;5067653;28;20391;-65
2023/12/22 02:24:40;;;;;;;8.88;3.53;;;19.30;81.40;;;;;;5045550;28;20046;-65
2023/12/22 02:27:08;;;;;;;10.05;3.40;;;19.20;81.50;;;;;;5047118;28;20052;-65
2023/12/22 02:29:43;;;;;;;8.82;2.97;;;19.30;81.60;;;;;;5014736;28;20048;-66
2023/12/22 02:32:12;;;;;;;11.25;3.78;;;19.20;78.70;;;;;;5017818;28;20051;-65
2023/12/22 02:34:38;;;;;;;10.13;4.00;;;19.20;81.50;;;;;;5057619;28;20403;-65
2023/12/22 02:37:08;;;;;;;10.45;3.15;;;19.20;77.20;;;;;;5048218;28;20045;-65
2023/12/22 02:39:34;;;;;;;11.55;3.58;;;19.00;81.20;;;;;;5064149;28;20402;-65
2023/12/22 02:42:00;;;;;;;10.55;3.35;;;19.00;81.80;;;;;;5043615;28;20502;-65
2023/12/22 02:44:26;;;;;;;10.35;3.58;;;18.90;81.80;;;;;;5017440;28;20049;-65
2023/12/22 02:46:52;;;;;;;8.90;3.10;;;18.80;81.70;;;;;;5033836;28;20045;-65
2023/12/22 02:49:18;;;;;;;9.93;3.28;;;18.90;81.70;;;;;;5030307;28;20052;-65
2023/12/22 02:51:44;;;;;;;10.32;3.38;;;18.70;78.20;;;;;;5015448;28;20050;-65
2023/12/22 02:54:10;;;;;;;10.05;3.15;;;18.80;81.60;;;;;;5020280;28;20045;-65
2023/12/22 02:56:36;;;;;;;11.00;3.88;;;18.80;81.60;;;;;;5023295;28;20123;-65
2023/12/22 02:59:02;;;;;;;10.82;3.35;;;18.70;81.60;;;;;;5037031;28;20084;-65
2023/12/22 03:01:28;;;;;;;9.90;3.22;;;;;;;;;;5013802;28;20050;-65
2023/12/22 03:03:53;;;;;;;9.07;3.38;;;18.60;81.50;;;;;;5014968;28;20128;-65
2023/12/22 03:06:19;;;;;;;9.95;3.53;;;18.70;81.60;;;;;;5020779;28;20132;-66
2023/12/22 03:08:45;;;;;;;10.48;3.63;;;;;;;;;;5031025;28;20125;-65
2023/12/22 03:11:11;;;;;;;9.45;3.10;;;;;;;;;;5056905;28;20579;-65
2023/12/22 03:13:37;;;;;;;11.55;3.45;;;18.40;81.90;;;;;;5033022;28;20099;-65
2023/12/22 03:16:07;;;;;;;11.98;3.83;;;18.60;82.10;;;;;;5038106;28;20443;-65
2023/12/22 03:18:33;;;;;;;11.82;2.95;;;18.50;81.90;;;;;;5014790;28;20551;-65
2023/12/22 03:20:59;;;;;;;9.18;3.40;;;18.50;82.00;;;;;;5015493;28;20113;-66
2023/12/22 03:23:25;;;;;;;9.35;3.35;;;18.30;82.10;;;;;;5050369;28;20115;-65
2023/12/22 03:25:50;;;;;;;10.23;3.50;;;18.50;82.30;;;;;;5014915;28;20069;-65
2023/12/22 03:28:16;;;;;;;9.40;2.88;;;18.20;80.10;;;;;;5014929;28;20289;-65
2023/12/22 03:30:42;;;;;;;10.15;3.22;;;18.40;82.30;;;;;;5046580;28;20045;-65
2023/12/22 03:33:08;;;;;;;7.50;2.65;;;18.30;82.10;;;;;;5027475;28;20076;-65
2023/12/22 03:35:33;;;;;;;8.15;2.80;;;18.50;82.40;;;;;;5066292;28;20089;-65
2023/12/22 03:37:59;;;;;;;9.20;2.97;;;18.30;82.40;;;;;;5032745;28;20048;-65
2023/12/22 03:40:25;;;;;;;8.52;3.22;;;;;;;;;;5032582;28;20049;-65
2023/12/22 03:42:51;;;;;;;9.70;3.38;;;;;;;;;;5023120;28;20033;-65
2023/12/22 03:45:17;;;;;;;7.85;2.78;;;18.30;81.80;;;;;;5065969;28;20057;-65
2023/12/22 03:47:43;;;;;;;10.40;3.28;;;18.30;82.10;;;;;;5034049;28;20064;-65
2023/12/22 03:50:09;;;;;;;8.48;2.85;;;18.20;82.50;;;;;;5053081;28;20495;-65
2023/12/22 03:52:35;;;;;;;8.52;2.35;;;18.10;81.90;;;;;;5021580;28;20048;-65
2023/12/22 03:55:02;;;;;;;8.43;3.30;;;;;;;;;;5032573;28;20040;-65
2023/12/22 03:57:28;;;;;;;9.75;3.00;;;18.00;80.00;;;;;;5018138;28;20053;-65
2023/12/22 03:59:53;;;;;;;7.63;2.50;;;18.00;82.70;;;;;;5014340;28;20401;-65
2023/12/22 04:02:19;;;;;;;10.20;3.05;;;18.30;83.00;;;;;;5013791;28;20079;-65
2023/12/22 04:04:45;;;;;;;7.78;2.78;;;18.00;82.90;;;;;;5029993;28;20076;-65
2023/12/22 04:07:11;;;;;;;8.88;3.15;;;18.00;83.00;;;;;;5062274;28;20120;-65
2023/12/22 04:09:38;;;;;;;9.35;2.90;;;18.10;79.50;;;;;;5065318;28;20399;-65
2023/12/22 04:12:04;;;;;;;10.88;3.20;;;17.90;82.60;;;;;;5065415;28;20118;-65
2023/12/22 04:14:31;;;;;;;9.43;3.47;;;;;;;;;;5052361;28;20050;-65
2023/12/22 04:16:57;;;;;;;9.20;3.05;;;17.90;82.60;;;;;;5037547;28;20056;-65
2023/12/22 04:19:22;;;;;;;9.35;3.25;;;17.80;82.70;;;;;;5029394;28;20099;-65
2023/12/22 04:21:49;;;;;;;8.77;2.92;;;;;;;;;;5032396;28;20061;-65
2023/12/22 04:24:14;;;;;;;9.93;3.55;;;17.90;82.60;;;;;;5006413;28;20100;-65
2023/12/22 04:26:40;;;;;;;10.07;3.47;;;17.90;82.60;;;;;;5035987;28;20518;-65
2023/12/22 04:29:06;;;;;;;9.63;3.30;;;17.80;82.60;;;;;;5030264;28;20100;-65
2023/12/22 04:31:32;;;;;;;9.10;3.42;;;17.70;82.70;;;;;;5045604;28;20492;-65
2023/12/22 04:33:58;;;;;;;9.40;2.95;;;;;;;;;;5011826;28;20557;-65
2023/12/22 04:36:24;;;;;;;10.82;3.08;;;;;;;;;;5013909;28;20050;-65
2023/12/22 04:38:50;;;;;;;9.27;3.22;;;17.70;82.70;;;;;;5019258;28;20041;-65
2023/12/22 04:41:16;;;;;;;8.48;2.97;;;17.80;82.80;;;;;;5025981;28;20092;-65
2023/12/22 04:43:42;;;;;;;10.55;3.22;;;17.70;82.80;;;;;;5030940;28;20053;-65
2023/12/22 04:46:07;;;;;;;9.75;3.25;;;17.70;82.80;;;;;;5019264;28;20033;-65
2023/12/22 04:48:33;;;;;;;7.47;2.58;;;17.60;82.80;;;;;;5026240;28;20099;-65
2023/12/22 04:50:59;;;;;;;9.45;3.13;;;17.60;83.00;;;;;;5012311;28;20052;-66
2023/12/22 04:53:25;;;;;;;10.77;3.38;;;17.60;82.90;;;;;;5012922;28;20484;-66
2023/12/22 04:55:51;;;;;;;8.68;2.95;;;17.60;80.30;;;;;;5020021;28;20041;-65
2023/12/22 04:58:16;;;;;;;9.82;3.25;;;17.60;83.00;;;;;;5020784;28;20514;-66
2023/12/22 05:00:42;;;;;;;9.80;3.25;;;;;;;;;;5063054;28;20045;-65
2023/12/22 05:03:08;;;;;;;11.60;3.83;;;17.40;82.90;;;;;;5032634;28;20053;-64
2023/12/22 05:05:34;;;;;;;9.93;3.05;;;17.50;83.00;;;;;;5028629;28;20052;-64
2023/12/22 05:08:00;;;;;;;9.90;3.38;;;;;;;;;;5032231;28;20086;-65
2023/12/22 05:10:26;;;;;;;10.32;3.33;;;17.40;83.00;;;;;;5063016;28;20049;-65
2023/12/22 05:12:51;;;;;;;10.43;3.25;;;17.50;81.10;;;;;;5028928;28;20065;-65
2023/12/22 05:15:17;;;;;;;9.85;3.20;;;17.30;82.90;;;;;;5011875;28;20037;-65
2023/12/22 05:17:43;;;;;;;10.20;3.38;;;17.50;83.00;;;;;;5059842;28;20045;-65
2023/12/22 05:20:09;;;;;;;9.07;3.25;;;;;;;;;;5029228;28;20507;-65
2023/12/22 05:22:36;;;;;;;10.32;2.97;;;17.50;82.00;;;;;;5032389;28;20049;-65
2023/12/22 05:25:02;;;;;;;11.07;3.58;;;17.60;79.60;;;;;;5018708;28;20129;-64
2023/12/22 05:27:28;;;;;;;10.75;3.75;;;17.30;83.00;;;;;;4997742;28;20092;-64
2023/12/22 05:29:54;;;;;;;9.15;3.15;;;17.40;83.00;;;;;;5032419;28;20069;-65
2023/12/22 05:32:20;;;;;;;11.10;3.17;;;17.50;83.00;;;;;;5016731;28;20046;-65
2023/12/22 05:34:45;;;;;;;9.60;3.22;;;17.30;82.90;;;;;;5011744;28;20069;-65
2023/12/22 05:37:11;;;;;;;8.77;3.13;;;17.30;82.90;;;;;;5020827;28;20488;-65
2023/12/22 05:39:37;;;;;;;12.05;3.72;;;;;;;;;;5016892;28;20057;-65
2023/12/22 05:42:03;;;;;;;10.63;2.90;;;17.40;82.80;;;;;;5013879;28;20038;-64
2023/12/22 05:44:30;;;;;;;11.70;3.40;;;17.60;83.00;;;;;;5031052;28;20183;-65
2023/12/22 05:46:57;;;;;;;9.63;3.60;;;17.50;83.00;;;;;;5062788;28;20045;-65
2023/12/22 05:49:23;;;;;;;7.72;3.28;;;17.60;83.10;;;;;;5042144;28;20132;-65
2023/12/22 05:51:50;;;;;;;9.77;3.30;;;;;;;;;;5062210;28;20530;-65
2023/12/22 05:54:16;;;;;;;9.57;3.17;;;17.50;83.10;;;;;;5030514;28;20084;-65
2023/12/22 05:56:42;;;;;;;9.70;3.30;;;17.50;83.20;;;;;;5030843;28;20054;-65
2023/12/22 05:59:08;;;;;;;10.75;3.53;;;17.50;83.30;;;;;;5028979;28;20498;-65
2023/12/22 06:01:34;;;;;;;10.40;3.58;;;;;;;;;;5064514;28;20066;-65
2023/12/22 06:04:00;;;;;;;10.32;3.22;;;17.50;83.10;;;;;;5015049;28;20487;-65
2023/12/22 06:06:27;;;;;;;10.10;3.38;;;;;;;;;;5013196;28;20045;-65
2023/12/22 06:08:53;;;;;;;11.45;4.03;;;17.30;83.00;;;;;;5011825;28;20054;-65
2023/12/22 06:11:19;;;;;;;13.27;3.72;;;17.40;83.10;;;;;;5012261;28;20065;-66
2023/12/22 06:13:44;;;;;;;12.18;3.67;;;17.50;80.40;;;;;;5043502;28;20133;-65
2023/12/22 06:16:14;;;;;;;10.82;3.42;;;17.50;83.20;;;;;;5018141;28;20037;-65
2023/12/22 06:18:41;;;;;;;11.48;3.50;;;17.40;83.20;;;;;;5015989;28;20128;-65
2023/12/22 06:21:07;;;;;;;11.13;3.83;;;;;;;;;;5020385;28;20053;-65
2023/12/22 06:23:33;;;;;;;13.50;4.03;;;;;;;;;;5015854;28;20052;-65
2023/12/22 06:26:02;;;;;;;11.13;3.67;;;17.20;83.20;;;;;;5012496;28;20092;-65
2023/12/22 06:28:27;;;;;;;10.23;3.53;;;17.20;83.20;;;;;;5017135;28;20494;-65
2023/12/22 06:30:54;;;;;;;9.02;3.45;;;;;;;;;;5050237;28;20042;-65
2023/12/22 06:33:20;;;;;;;15.18;4.57;;;17.40;83.20;;;;;;5020933;28;20082;-65
2023/12/22 06:35:46;;;;;;;10.00;3.33;;;17.40;82.70;;;;;;5030613;28;20042;-65
2023/12/22 06:38:11;;;;;;;9.60;3.97;;;17.30;83.30;;;;;;5047336;28;20104;-65
2023/12/22 06:40:37;;;;;;;9.90;3.53;;;17.30;83.40;;;;;;5023363;28;20073;-65
2023/12/22 06:43:04;;;;;;;8.40;3.47;;;17.30;83.40;;;;;;5014421;28;20111;-65
2023/12/22 06:45:30;;;;;;;12.10;3.67;;;17.20;82.10;;;;;;5014294;28;20129;-64
2023/12/22 06:47:56;;;;;;;12.55;4.07;;;17.30;80.30;;;;;;5065134;28;20128;-65
2023/12/22 06:50:22;;;;;;;12.63;3.40;;;17.20;83.40;;;;;;5029300;28;20053;-65
2023/12/22 06:52:49;;;;;;;13.25;3.67;;;;;;;;;;5016323;28;20042;-65
2023/12/22 06:55:15;;;;;;;11.95;3.75;;;17.20;83.60;;;;;;5014029;28;20054;-65
2023/12/22 06:57:42;;;;;;;10.50;3.22;;;;;;;;;;5064112;28;20122;-65
2023/12/22 07:00:08;;;;;;;9.77;3.30;;;16.90;83.50;;;;;;5065317;28;20175;-65
2023/12/22 07:02:34;;;;;;;11.55;3.53;;;17.30;83.80;;;;;;5029995;28;20041;-65
2023/12/22 07:05:11;;;;;;;12.10;4.00;;;16.90;79.80;;;;;;5034847;28;20041;-65
2023/12/22 07:07:37;;;;;;;11.48;3.80;;;17.20;83.60;;;;;;5035100;28;20045;-65
2023/12/22 07:10:04;;;;;;;12.68;3.35;;;17.10;83.70;;;;;;5016729;28;20050;-65
2023/12/22 07:12:29;;;;;;;8.82;2.95;;;17.10;83.80;;;;;;5046460;28;20526;-65
2023/12/22 07:14:55;;;;;;;8.13;3.53;;;17.10;84.10;;;;;;5033790;28;20042;-65
2023/12/22 07:17:21;;;;;;;9.68;3.30;;;17.00;84.20;;;;;;5022523;28;20041;-65
2023/12/22 07:19:47;;;;;;;9.38;3.50;;;17.10;84.30;;;;;;5046851;28;20744;-66
2023/12/22 07:22:14;;;;;;;11.85;3.55;;;17.20;81.90;;;;;;5016839;28;20128;-68
2023/12/22 07:24:40;;;;;;;16.52;7.32;;;17.10;84.60;;;;;;5034802;28;20038;-68
2023/12/22 07:27:06;;;;;;;30.42;15.65;;;17.10;84.60;;;;;;5031458;28;20049;-68
2023/12/22 07:29:32;;;;;;;51.50;34.88;;;17.20;84.80;;;;;;5032325;28;20057;-67
2023/12/22 07:32:01;;;;;;;76.82;68.70;;;17.10;82.70;;;;;;5014986;28;20034;-66
2023/12/22 07:34:27;;;;;;;58.30;52.50;;;17.30;84.90;;;;;;5034516;28;20132;-66
2023/12/22 07:36:53;;;;;;;57.70;51.70;;;17.40;85.00;;;;;;5034510;28;20065;-66
2023/12/22 07:39:19;;;;;;;45.55;40.85;;;17.30;83.50;;;;;;5034481;28;20089;-64
2023/12/22 07:41:44;;;;;;;41.03;36.95;;;17.40;84.70;;;;;;5026844;28;20049;-65
2023/12/22 07:44:10;;;;;;;35.47;31.77;;;17.60;84.80;;;;;;5032158;28;20038;-64
2023/12/22 07:46:36;;;;;;;33.20;29.77;;;17.60;84.60;;;;;;5038998;28;20087;-66
2023/12/22 07:49:02;;;;;;;30.58;26.77;;;17.70;84.60;;;;;;5016056;28;20088;-66
2023/12/22 07:51:27;;;;;;;30.55;26.30;;;17.90;84.50;;;;;;5027787;28;20034;-64
2023/12/22 07:53:53;;;;;;;28.05;23.08;;;18.00;84.50;;;;;;5065089;28;20517;-66
2023/12/22 07:56:19;;;;;;;27.10;21.73;;;;;;;;;;5057856;28;20050;-65
2023/12/22 07:58:45;;;;;;;22.13;19.80;;;18.30;84.20;;;;;;5029155;28;20054;-66
2023/12/22 08:01:11;;;;;;;20.42;18.27;;;18.30;84.00;;;;;;5046129;28;20484;-65
2023/12/22 08:03:37;;;;;;;20.92;17.23;;;18.30;83.60;;;;;;5010003;28;20521;-65
2023/12/22 08:06:03;;;;;;;22.17;17.77;;;18.70;83.80;;;;;;5040473;28;20069;-66
2023/12/22 08:08:29;;;;;;;21.15;16.13;;;18.50;83.60;;;;;;5030000;28;20042;-65
2023/12/22 08:10:55;;;;;;;20.35;14.93;;;;;;;;;;5033352;28;20068;-63
2023/12/22 08:13:21;;;;;;;23.77;17.08;;;18.80;83.70;;;;;;5033575;28;20505;-65
2023/12/22 08:15:47;;;;;;;24.63;15.82;;;18.60;83.50;;;;;;5031836;28;20037;-65
2023/12/22 08:18:13;;;;;;;21.73;15.80;;;18.60;83.50;;;;;;5052438;28;20042;-65
2023/12/22 08:20:39;;;;;;;22.10;15.32;;;18.70;83.60;;;;;;5020283;28;20036;-66
2023/12/22 08:23:04;;;;;;;18.95;13.98;;;18.80;83.80;;;;;;5045374;28;20137;-65
2023/12/22 08:25:30;;;;;;;18.92;13.05;;;;;;;;;;5045521;28;20053;-64
2023/12/22 08:27:57;;;;;;;19.52;12.90;;;18.70;81.70;;;;;;5010478;28;20056;-64
2023/12/22 08:30:24;;;;;;;17.55;12.02;;;18.70;83.90;;;;;;5023667;28;20499;-64
2023/12/22 08:32:50;;;;;;;16.35;10.43;;;18.70;83.90;;;;;;5020869;28;20128;-64
2023/12/22 08:35:16;;;;;;;17.65;11.13;;;;;;;;;;5027601;28;20418;-64
2023/12/22 08:37:42;;;;;;;18.48;10.40;;;;;;;;;;5030751;28;20054;-64
2023/12/22 08:40:08;;;;;;;12.80;9.63;;;18.70;83.90;;;;;;5030827;28;20052;-64
2023/12/22 08:42:34;;;;;;;15.05;9.15;;;18.50;83.80;;;;;;5032020;28;20454;-65
2023/12/22 08:45:02;;;;;;;14.82;9.32;;;;;;;;;;5060760;28;20116;-64
2023/12/22 08:47:28;;;;;;;16.48;8.95;;;18.60;84.00;;;;;;5046723;28;20064;-64
2023/12/22 08:49:54;;;;;;;20.30;12.15;;;18.80;84.00;;;;;;5024270;28;20168;-64
2023/12/22 08:52:19;;;;;;;34.40;30.98;;;18.50;83.90;;;;;;5015857;28;20111;-66
2023/12/22 08:54:45;;;;;;;49.53;44.70;;;;;;;;;;5030211;28;20056;-65
2023/12/22 08:57:11;;;;;;;34.63;31.02;;;18.60;83.90;;;;;;5029105;28;20087;-65
2023/12/22 08:59:37;;;;;;;32.35;28.95;;;;;;;;;;5031332;28;20048;-64
2023/12/22 09:02:03;;;;;;;29.83;26.77;;;18.70;84.00;;;;;;5032967;28;20049;-64
2023/12/22 09:04:29;;;;;;;37.67;33.83;;;18.90;84.10;;;;;;5031883;28;20395;-65
2023/12/22 09:06:55;;;;;;;53.80;48.03;;;18.70;83.90;;;;;;5032664;28;20046;-67
2023/12/22 09:09:23;;;;;;;67.07;58.67;;;18.60;81.30;;;;;;5052436;28;20053;-64
2023/12/22 09:11:49;;;;;;;51.42;44.47;;;18.90;83.80;;;;;;5012734;28;20053;-65
2023/12/22 09:14:14;;;;;;;55.33;41.40;;;18.80;83.80;;;;;;5044955;28;20054;-64
2023/12/22 09:16:40;;;;;;;42.95;38.40;;;19.00;83.80;;;;;;5012847;28;20551;-65
2023/12/22 09:19:06;;;;;;;45.42;37.53;;;18.90;83.50;;;;;;5022604;28;20128;-64
2023/12/22 09:21:32;;;;;;;41.47;34.17;;;19.10;83.60;;;;;;4998431;28;20046;-61
2023/12/22 09:23:58;;;;;;;36.10;31.50;;;19.10;83.40;;;;;;5011413;28;20157;-62
2023/12/22 09:26:24;;;;;;;34.30;28.85;;;;;;;;;;5040269;28;20045;-65
2023/12/22 09:28:49;;;;;;;35.58;27.15;;;19.30;83.30;;;;;;5027614;28;20045;-65
2023/12/22 09:31:15;;;;;;;37.05;26.98;;;19.20;83.00;;;;;;5013084;28;20400;-65
2023/12/22 09:33:42;;;;;;;31.27;25.23;;;19.30;83.10;;;;;;5012957;28;20104;-66
2023/12/22 09:36:08;;;;;;;31.00;23.35;;;19.30;83.10;;;;;;5010897;28;20057;-63
2023/12/22 09:38:34;;;;;;;26.20;21.85;;;;;;;;;;5011363;28;20065;-66
2023/12/22 09:41:00;;;;;;;27.85;20.48;;;19.40;83.10;;;;;;5014754;28;20104;-64
2023/12/22 09:43:26;;;;;;;25.52;20.50;;;19.20;83.00;;;;;;5030234;28;20057;-67
2023/12/22 09:45:52;;;;;;;22.27;18.63;;;19.30;83.10;;;;;;5011384;28;20053;-65
2023/12/22 09:48:20;;;;;;;22.73;18.80;;;19.20;83.00;;;;;;5011650;28;20077;-65
2023/12/22 09:50:46;;;;;;;22.02;17.30;;;19.20;83.00;;;;;;5014339;28;20062;-66
2023/12/22 09:53:13;;;;;;;24.17;18.15;;;19.20;83.00;;;;;;5028811;28;20170;-67
2023/12/22 09:55:40;;;;;;;74.38;66.70;;;;;;;;;;5026827;28;20037;-66
2023/12/22 09:58:05;;;;;;;163.32;145.85;;;19.20;83.20;;;;;;5014598;28;20045;-67
2023/12/22 10:00:31;;;;;;;123.30;110.85;;;19.20;82.90;;;;;;5018658;28;20127;-71
2023/12/22 10:02:57;;;;;;;231.82;106.88;;;19.20;82.90;;;;;;5014155;28;20548;-66
2023/12/22 10:05:23;;;;;;;256.35;127.25;;;19.40;83.10;;;;;;5047746;28;20038;-71
2023/12/22 10:07:50;;;;;;;219.65;130.90;;;19.30;82.90;;;;;;5012485;28;20042;-63
2023/12/22 10:10:16;;;;;;;189.02;114.30;;;;;;;;;;5008658;28;20580;-63
2023/12/22 10:12:42;;;;;;;202.10;121.15;;;19.80;79.90;;;;;;5014198;28;20434;-63
2023/12/22 10:15:08;;;;;;;162.63;103.38;;;19.80;81.90;;;;;;5027433;28;20046;-63
2023/12/22 10:17:34;;;;;;;134.15;79.93;;;20.20;81.30;;;;;;5039894;28;20064;-65
2023/12/22 10:20:00;;;;;;;85.43;64.00;;;20.50;80.90;;;;;;5022853;28;20042;-64
2023/12/22 10:22:26;;;;;;;73.20;53.30;;;;;;;;;;5045989;28;20049;-64
2023/12/22 10:24:52;;;;;;;68.05;45.75;;;20.60;80.00;;;;;;5018048;28;20124;-63
2023/12/22 10:27:22;;;;;;;50.03;38.33;;;20.40;79.70;;;;;;5013238;28;20171;-65
2023/12/22 10:29:55;;;;;;;49.33;34.60;;;20.60;79.70;;;;;;5024080;28;20065;-65
2023/12/22 10:32:21;;;;;;;;;;;20.40;77.10;;;;;;5030943;28;20558;-64
2023/12/22 10:34:47;;;;;;;40.65;25.88;;;20.30;78.60;;;;;;5025729;28;19929;-64
2023/12/22 10:37:13;;;;;;;34.30;23.88;;;20.30;79.80;;;;;;5013617;28;20052;-65
2023/12/22 10:39:38;;;;;;;38.45;26.98;;;20.30;80.00;;;;;;5021610;28;20056;-66
2023/12/22 10:42:05;;;;;;;46.65;36.58;;;;;;;;;;5045891;28;20053;-69
2023/12/22 10:44:31;;;;;;;68.55;61.78;;;20.10;79.60;;;;;;5013046;28;20060;-63
2023/12/22 10:46:57;;;;;;;90.30;81.00;;;20.20;76.20;;;;;;5027232;28;20045;-64
2023/12/22 10:49:23;;;;;;;68.20;61.78;;;20.20;79.50;;;;;;5052384;28;20047;-64
2023/12/22 10:51:49;;;;;;;49.20;44.00;;;20.40;79.20;;;;;;5023996;28;20058;-64
2023/12/22 10:54:15;;;;;;;46.67;42.38;;;;;;;;;;5053103;28;20124;-64
2023/12/22 10:56:41;;;;;;;42.03;37.58;;;20.50;79.10;;;;;;5032311;28;20038;-63
2023/12/22 10:59:07;;;;;;;33.92;30.38;;;;;;;;;;5020451;28;20586;-64
2023/12/22 11:01:33;;;;;;;35.88;28.90;;;;;;;;;;5014524;28;20041;-64
2023/12/22 11:04:02;;;;;;;27.00;23.85;;;20.50;79.30;;;;;;5031448;28;20045;-66
2023/12/22 11:06:35;;;;;;;23.13;20.63;;;20.40;79.40;;;;;;5028519;28;20064;-64
2023/12/22 11:09:01;;;;;;;19.55;17.52;;;20.20;79.60;;;;;;5021446;28;20554;-65
2023/12/22 11:11:30;;;;;;;17.17;12.32;;;20.20;79.80;;;;;;5047110;28;20062;-65
2023/12/22 11:13:57;;;;;;;21.48;12.05;;;19.90;79.80;;;;;;5029761;28;20061;-64
2023/12/22 11:16:23;;;;;;;27.70;12.20;;;19.90;79.70;;;;;;5052139;28;20050;-67
2023/12/22 11:18:49;;;;;;;25.88;10.35;;;;;;;;;;5013170;28;20089;-66
2023/12/22 11:21:15;;;;;;;24.67;10.13;;;19.70;80.20;;;;;;4997444;28;20054;-66
2023/12/22 11:23:41;;;;;;;28.65;9.73;;;19.80;80.50;;;;;;5014122;28;20050;-64
2023/12/22 11:26:08;;;;;;;28.95;10.10;;;19.80;80.00;;;;;;5044372;28;20049;-64
2023/12/22 11:28:34;;;;;;;25.88;12.77;;;;;;;;;;4985177;28;20148;-65
2023/12/22 11:30:59;;;;;;;30.33;12.10;;;19.80;81.00;;;;;;5061917;28;20062;-65
2023/12/22 11:33:27;;;;;;;34.03;11.18;;;19.70;81.10;;;;;;5021249;28;20042;-65
2023/12/22 11:35:55;;;;;;;21.25;10.15;;;;;;;;;;5054743;28;20060;-64
2023/12/22 11:38:21;;;;;;;21.92;9.10;;;;;;;;;;5006212;28;20088;-64
2023/12/22 11:40:49;;;;;;;23.73;8.20;;;19.60;81.50;;;;;;5020038;28;20053;-65
2023/12/22 11:43:15;;;;;;;21.13;8.27;;;19.60;81.70;;;;;;5028696;28;20500;-65
2023/12/22 11:45:42;;;;;;;15.18;7.38;;;19.50;81.80;;;;;;5046818;28;20049;-65
2023/12/22 11:48:09;;;;;;;16.70;6.97;;;19.50;81.50;;;;;;5012552;28;20101;-64
2023/12/22 11:50:35;;;;;;;21.95;7.82;;;;;;;;;;5044355;28;20487;-63
2023/12/22 11:53:23;;;;;;;17.45;6.45;;;19.20;80.20;;;;;;4998146;28;20056;-65
2023/12/22 11:56:07;;;;;;;15.23;6.68;;;19.40;78.50;;;;;;5024435;28;20115;-64
2023/12/22 11:58:34;;;;;;;13.25;6.60;;;19.30;82.70;;;;;;5044024;28;20045;-66
2023/12/22 12:01:03;;;;;;;41.28;26.40;;;19.20;80.20;;;;;;5064584;28;20069;-65
2023/12/22 12:03:31;;;;;;;264.45;173.88;;;19.20;81.40;;;;;;5016885;28;20041;-66
2023/12/22 12:06:16;;;;;;;138.90;90.50;;;19.10;83.00;;;;;;5013243;28;20058;-65
2023/12/22 12:08:43;;;;;;;109.03;73.88;;;19.20;83.00;;;;;;5020850;28;20044;-65
2023/12/22 12:11:09;;;;;;;98.97;67.43;;;;;;;;;;5003964;28;20050;-65
2023/12/22 12:13:35;;;;;;;93.13;62.60;;;;;;;;;;5014433;28;20054;-65
2023/12/22 12:16:02;;;;;;;80.82;54.83;;;19.30;83.20;;;;;;5011745;28;20121;-64
2023/12/22 12:18:28;;;;;;;76.25;51.70;;;19.20;83.10;;;;;;5050117;28;20046;-66
2023/12/22 12:20:54;;;;;;;72.88;49.20;;;19.20;83.20;;;;;;5026189;28;20049;-65
2023/12/22 12:23:20;;;;;;;68.07;45.28;;;19.40;83.40;;;;;;5020234;28;20057;-65
2023/12/22 12:25:46;;;;;;;61.97;41.90;;;19.30;81.10;;;;;;5047322;28;20068;-64
2023/12/22 12:28:12;;;;;;;59.75;39.70;;;19.30;83.40;;;;;;5017090;28;20499;-65
2023/12/22 12:30:38;;;;;;;52.83;36.55;;;19.30;83.50;;;;;;5044639;28;20046;-65
2023/12/22 12:33:11;;;;;;;51.13;33.58;;;19.20;83.50;;;;;;5044213;28;20140;-66
2023/12/22 12:35:40;;;;;;;47.35;31.92;;;19.30;83.50;;;;;;5060278;28;20128;-65
2023/12/22 12:38:07;;;;;;;43.28;30.05;;;;;;;;;;5011880;28;20064;-65
2023/12/22 12:40:35;;;;;;;41.10;27.92;;;19.30;83.70;;;;;;5050025;28;20191;-65
2023/12/22 12:43:01;;;;;;;37.50;25.95;;;19.20;83.70;;;;;;5032022;28;20116;-66
2023/12/22 12:45:28;;;;;;;37.30;24.25;;;19.30;83.80;;;;;;5033018;28;20052;-65
2023/12/22 12:48:00;;;;;;;36.10;23.90;;;19.30;83.80;;;;;;5032839;28;20395;-67
2023/12/22 12:50:26;;;;;;;52.77;31.77;;;19.30;83.80;;;;;;5022034;28;20042;-65